createdAt,value
2018-04-10T00:00:55.259Z,51.89
2018-04-10T00:03:23.007Z,52.11
2018-04-10T00:05:50.844Z,51.80
2018-04-10T00:08:18.422Z,51.82
2018-04-10T00:10:45.973Z,51.82
2018-04-10T00:13:13.544Z,52.04
2018-04-10T00:15:41.105Z,52.11
2018-04-10T00:18:08.934Z,51.86
2018-04-10T00:20:36.652Z,51.24
2018-04-10T00:23:04.371Z,51.56
2018-04-10T00:25:32.183Z,51.27
2018-04-10T00:27:59.740Z,51.14
2018-04-10T00:30:27.296Z,51.77
2018-04-10T00:32:55.010Z,51.93
2018-04-10T00:35:22.866Z,52.04
2018-04-10T00:37:50.679Z,51.71
2018-04-10T00:40:18.300Z,51.76
2018-04-10T00:42:46.015Z,51.46
2018-04-10T00:45:13.563Z,51.20
2018-04-10T00:47:41.125Z,51.78
2018-04-10T00:50:08.661Z,52.25
2018-04-10T00:52:36.239Z,52.00
2018-04-10T00:55:03.804Z,51.15
2018-04-10T00:57:31.523Z,51.78
2018-04-10T00:59:59.076Z,52.42
2018-04-10T01:02:26.808Z,52.29
2018-04-10T01:04:54.551Z,51.90
2018-04-10T01:07:22.113Z,53.25
2018-04-10T01:09:49.698Z,55.90
2018-04-10T01:12:17.399Z,56.35
2018-04-10T01:14:45.114Z,57.09
2018-04-10T01:17:12.831Z,57.05
2018-04-10T01:19:40.396Z,56.14
2018-04-10T01:22:07.948Z,56.18
2018-04-10T01:24:35.614Z,55.37
2018-04-10T01:27:03.176Z,54.53
2018-04-10T01:29:30.731Z,54.64
2018-04-10T01:31:58.289Z,55.60
2018-04-10T01:34:25.847Z,56.80
2018-04-10T01:36:53.399Z,55.40
2018-04-10T01:39:20.962Z,54.42
2018-04-10T01:41:48.722Z,55.15
2018-04-10T01:44:16.440Z,55.73
2018-04-10T01:46:44.081Z,56.25
2018-04-10T01:49:11.900Z,57.01
2018-04-10T01:51:39.504Z,55.53
2018-04-10T01:54:07.236Z,55.55
2018-04-10T01:56:34.792Z,57.23
2018-04-10T01:59:02.357Z,57.89
2018-04-10T02:01:29.909Z,58.82
2018-04-10T02:03:57.471Z,59.92
2018-04-10T02:06:25.226Z,59.94
2018-04-10T02:08:53.044Z,60.27
2018-04-10T02:11:20.608Z,60.30
2018-04-10T02:13:48.381Z,60.61
2018-04-10T02:16:16.200Z,61.72
2018-04-10T02:18:43.918Z,61.49
2018-04-10T02:21:11.480Z,61.49
2018-04-10T02:23:39.031Z,62.56
2018-04-10T02:26:06.650Z,62.45
2018-04-10T02:28:34.208Z,63.20
2018-04-10T02:31:01.767Z,63.16
2018-04-10T02:33:29.331Z,62.04
2018-04-10T02:35:56.885Z,59.74
2018-04-10T02:38:24.661Z,60.72
2018-04-10T02:40:52.232Z,62.80
2018-04-10T02:43:20.009Z,63.72
2018-04-10T02:45:47.565Z,63.94
2018-04-10T02:48:15.120Z,63.92
2018-04-10T02:50:42.684Z,63.99
2018-04-10T02:53:10.469Z,64.47
2018-04-10T02:55:38.288Z,64.94
2018-04-10T02:58:05.858Z,64.93
2018-04-10T03:00:33.476Z,65.08
2018-04-10T03:03:01.221Z,65.51
2018-04-10T03:05:28.824Z,65.94
2018-04-10T03:07:56.553Z,66.29
2018-04-10T03:10:24.296Z,66.52
2018-04-10T03:12:51.871Z,67.11
2018-04-10T03:15:19.480Z,66.80
2018-04-10T03:17:47.084Z,67.08
2018-04-10T03:20:14.640Z,67.07
2018-04-10T03:22:42.296Z,67.09
2018-04-10T03:25:10.104Z,67.91
2018-04-10T03:27:37.923Z,68.02
2018-04-10T03:30:05.743Z,67.94
2018-04-10T03:32:33.300Z,68.15
2018-04-10T03:35:01.044Z,68.34
2018-04-10T03:37:28.777Z,68.66
2018-04-10T03:39:56.335Z,69.07
2018-04-10T03:42:23.954Z,69.34
2018-04-10T03:44:51.586Z,69.51
2018-04-10T03:47:19.144Z,69.49
2018-04-10T03:49:46.704Z,69.89
2018-04-10T03:52:14.503Z,69.82
2018-04-10T03:54:42.116Z,69.79
2018-04-10T03:57:09.726Z,69.99
2018-04-10T03:59:37.457Z,69.91
2018-04-10T04:02:05.067Z,70.10
2018-04-10T04:04:32.616Z,70.53
2018-04-10T04:07:00.188Z,70.81
2018-04-10T04:12:00.761Z,70.17
2018-04-10T04:14:28.484Z,69.76
2018-04-10T04:17:08.024Z,69.51
2018-04-10T04:19:47.503Z,69.27
2018-04-10T04:22:26.861Z,69.52
2018-04-10T04:24:54.471Z,69.65
2018-04-10T04:27:22.092Z,69.54
2018-04-10T04:29:49.655Z,68.84
2018-04-10T04:32:17.215Z,68.12
2018-04-10T04:34:44.836Z,66.95
2018-04-10T04:37:12.464Z,65.83
2018-04-10T04:39:40.068Z,64.02
2018-04-10T04:42:07.673Z,62.87
2018-04-10T04:44:35.284Z,61.48
2018-04-10T04:47:02.840Z,59.84
2018-04-10T04:49:30.406Z,58.28
2018-04-10T04:51:58.176Z,57.01
2018-04-10T04:54:25.743Z,55.23
2018-04-10T04:56:53.404Z,53.01
2018-04-10T04:59:21.132Z,51.65
2018-04-10T05:01:48.715Z,50.00
2018-04-10T05:04:16.347Z,48.54
2018-04-10T05:06:43.979Z,46.86
2018-04-10T05:09:11.710Z,44.18
2018-04-10T05:11:39.520Z,41.53
2018-04-10T05:14:07.096Z,39.54
2018-04-10T05:16:34.651Z,37.86
2018-04-10T05:19:02.224Z,37.05
2018-04-10T05:21:29.972Z,37.05
2018-04-10T05:23:58.076Z,36.65
2018-04-10T05:26:25.693Z,35.41
2018-04-10T05:28:54.879Z,33.70
2018-04-10T05:31:22.746Z,32.12
2018-04-10T05:33:51.136Z,30.55
2018-04-10T05:36:19.136Z,29.35
2018-04-10T05:38:46.820Z,28.76
2018-04-10T05:41:15.258Z,27.97
2018-04-10T05:43:43.336Z,27.33
2018-04-10T05:46:11.117Z,27.31
2018-04-10T05:48:38.732Z,26.68
2018-04-10T05:51:07.198Z,26.09
2018-04-10T05:53:34.768Z,25.27
2018-04-10T05:56:02.324Z,24.42
2018-04-10T05:58:30.511Z,23.48
2018-04-10T06:00:58.417Z,23.77
2018-04-10T06:03:25.977Z,24.38
2018-04-10T06:05:53.576Z,24.47
2018-04-10T06:08:21.391Z,23.79
2018-04-10T06:10:48.964Z,23.50
2018-04-10T06:13:16.524Z,22.80
2018-04-10T06:15:44.124Z,21.85
2018-04-10T06:18:11.718Z,21.54
2018-04-10T06:20:39.467Z,21.55
2018-04-10T06:23:07.667Z,21.19
2018-04-10T06:25:37.132Z,20.17
2018-04-10T06:28:05.364Z,20.08
2018-04-10T06:30:33.704Z,20.30
2018-04-10T06:33:01.520Z,20.47
2018-04-10T06:35:29.130Z,20.90
2018-04-10T06:37:56.696Z,21.70
2018-04-10T06:40:24.269Z,22.09
2018-04-10T06:42:52.278Z,21.45
2018-04-10T06:45:19.920Z,21.40
2018-04-10T06:47:47.468Z,20.77
2018-04-10T06:50:15.189Z,20.45
2018-04-10T06:52:43.115Z,20.61
2018-04-10T06:55:10.917Z,20.93
2018-04-10T06:57:39.930Z,20.97
2018-04-10T07:00:08.056Z,21.23
2018-04-10T07:02:35.873Z,21.38
2018-04-10T07:05:03.976Z,21.33
2018-04-10T07:07:32.168Z,21.92
2018-04-10T07:09:59.910Z,22.46
2018-04-10T07:12:27.472Z,22.45
2018-04-10T07:14:55.270Z,21.64
2018-04-10T07:17:22.875Z,21.82
2018-04-10T07:19:50.465Z,20.70
2018-04-10T07:22:18.044Z,19.91
2018-04-10T07:24:45.627Z,19.74
2018-04-10T07:27:13.459Z,19.80
2018-04-10T07:29:41.020Z,19.75
2018-04-10T07:32:09.321Z,19.71
2018-04-10T07:34:37.117Z,20.60
2018-04-10T07:37:04.836Z,20.29
2018-04-10T07:39:32.403Z,20.11
2018-04-10T07:42:00.227Z,19.68
2018-04-10T07:44:27.959Z,19.91
2018-04-10T07:46:55.520Z,19.67
2018-04-10T07:49:23.147Z,19.97
2018-04-10T07:51:50.709Z,20.53
2018-04-10T07:54:18.427Z,21.21
2018-04-10T07:56:45.984Z,21.51
2018-04-10T07:59:13.589Z,21.36
2018-04-10T08:01:41.314Z,21.53
2018-04-10T08:04:08.892Z,21.88
2018-04-10T08:06:36.652Z,21.10
2018-04-10T08:09:04.362Z,20.45
2018-04-10T08:11:31.978Z,20.88
2018-04-10T08:13:59.528Z,20.38
2018-04-10T08:16:27.324Z,21.34
2018-04-10T08:18:55.145Z,21.12
2018-04-10T08:21:22.961Z,21.44
2018-04-10T08:23:50.564Z,21.77
2018-04-10T08:26:18.297Z,21.55
2018-04-10T08:28:46.195Z,20.66
2018-04-10T08:31:13.813Z,21.36
2018-04-10T08:33:41.651Z,20.44
2018-04-10T08:36:09.370Z,20.81
2018-04-10T08:38:36.919Z,20.97
2018-04-10T08:41:04.806Z,21.26
2018-04-10T08:43:33.138Z,19.87
2018-04-10T08:46:00.704Z,20.48
2018-04-10T08:48:28.256Z,21.49
2018-04-10T08:50:55.828Z,19.96
2018-04-10T08:53:23.600Z,20.40
2018-04-10T08:55:51.254Z,20.18
2018-04-10T08:58:18.843Z,20.46
2018-04-10T09:00:46.420Z,20.78
2018-04-10T09:03:13.988Z,20.28
2018-04-10T09:05:41.790Z,20.70
2018-04-10T09:08:09.375Z,20.63
2018-04-10T09:10:36.949Z,20.84
2018-04-10T09:13:04.742Z,20.88
2018-04-10T09:15:32.562Z,21.77
2018-04-10T09:18:00.112Z,20.66
2018-04-10T09:20:27.687Z,20.59
2018-04-10T09:22:55.419Z,19.38
2018-04-10T09:25:23.132Z,20.82
2018-04-10T09:27:50.719Z,20.62
2018-04-10T09:30:18.310Z,20.39
2018-04-10T09:32:46.087Z,21.12
2018-04-10T09:35:13.753Z,21.68
2018-04-10T09:37:41.316Z,21.92
2018-04-10T09:40:09.134Z,22.28
2018-04-10T09:42:36.713Z,21.33
2018-04-10T09:45:04.289Z,21.75
2018-04-10T09:47:31.894Z,21.21
2018-04-10T09:49:59.456Z,22.31
2018-04-10T09:52:27.017Z,21.40
2018-04-10T09:54:54.753Z,20.23
2018-04-10T09:57:22.569Z,21.00
2018-04-10T09:59:50.140Z,21.14
2018-04-10T10:02:17.867Z,20.83
2018-04-10T10:04:45.440Z,21.74
2018-04-10T10:07:12.992Z,23.57
2018-04-10T10:09:40.576Z,24.32
2018-04-10T10:12:08.184Z,24.75
2018-04-10T10:14:35.998Z,24.56
2018-04-10T10:17:03.720Z,23.34
2018-04-10T10:19:31.379Z,22.88
2018-04-10T10:21:58.945Z,22.83
2018-04-10T10:24:26.832Z,22.71
2018-04-10T10:26:54.821Z,22.94
2018-04-10T10:29:22.505Z,23.40
2018-04-10T10:31:50.086Z,23.11
2018-04-10T10:34:17.813Z,22.88
2018-04-10T10:36:45.379Z,22.22
2018-04-10T10:39:12.936Z,21.50
2018-04-10T10:41:40.764Z,22.09
2018-04-10T10:44:08.401Z,22.36
2018-04-10T10:46:36.132Z,21.46
2018-04-10T10:49:03.951Z,21.08
2018-04-10T10:51:31.518Z,21.53
2018-04-10T10:53:59.141Z,21.61
2018-04-10T10:56:26.689Z,21.79
2018-04-10T10:58:54.292Z,21.68
2018-04-10T11:01:21.848Z,21.82
2018-04-10T11:03:49.545Z,22.28
2018-04-10T11:06:17.337Z,23.41
2018-04-10T11:08:44.881Z,23.67
2018-04-10T11:11:12.534Z,24.00
2018-04-10T11:13:40.188Z,23.23
2018-04-10T11:16:08.129Z,22.29
2018-04-10T11:18:35.684Z,21.36
2018-04-10T11:21:03.308Z,23.06
2018-04-10T11:23:30.878Z,23.52
2018-04-10T11:25:58.599Z,23.26
2018-04-10T11:28:26.315Z,22.15
2018-04-10T11:30:53.892Z,20.91
2018-04-10T11:33:21.493Z,21.23
2018-04-10T11:35:49.069Z,21.40
2018-04-10T11:38:16.654Z,21.64
2018-04-10T11:40:44.207Z,21.75
2018-04-10T11:43:12.052Z,20.48
2018-04-10T11:45:39.639Z,19.64
2018-04-10T11:48:07.178Z,21.02
2018-04-10T11:50:34.744Z,21.20
2018-04-10T11:53:02.400Z,21.42
2018-04-10T11:55:30.139Z,21.86
2018-04-10T11:57:57.709Z,21.88
2018-04-10T12:00:25.311Z,22.21
2018-04-10T12:02:53.096Z,22.76
2018-04-10T12:05:20.720Z,22.57
2018-04-10T12:07:48.529Z,22.40
2018-04-10T12:10:16.242Z,22.93
2018-04-10T12:12:43.814Z,23.12
2018-04-10T12:15:11.376Z,22.42
2018-04-10T12:17:38.945Z,22.00
2018-04-10T12:20:06.569Z,21.84
2018-04-10T12:22:34.148Z,22.73
2018-04-10T12:25:01.854Z,22.95
2018-04-10T12:27:29.672Z,22.84
2018-04-10T12:29:57.249Z,22.67
2018-04-10T12:32:24.849Z,21.96
2018-04-10T12:34:52.429Z,22.21
2018-04-10T12:37:20.244Z,23.03
2018-04-10T12:39:48.063Z,22.26
2018-04-10T12:42:15.672Z,22.52
2018-04-10T12:44:43.308Z,23.01
2018-04-10T12:47:11.018Z,23.43
2018-04-10T12:49:38.626Z,22.54
2018-04-10T12:52:06.193Z,23.04
2018-04-10T12:54:33.970Z,22.51
2018-04-10T12:57:01.547Z,22.65
2018-04-10T12:59:29.105Z,23.31
2018-04-10T13:01:56.925Z,23.05
2018-04-10T13:04:24.479Z,22.95
2018-04-10T13:06:52.137Z,22.68
2018-04-10T13:09:19.677Z,22.48
2018-04-10T13:11:47.396Z,22.32
2018-04-10T13:14:14.986Z,22.59
2018-04-10T13:16:42.549Z,21.98
2018-04-10T13:19:10.250Z,23.43
2018-04-10T13:21:37.906Z,23.11
2018-04-10T13:24:05.554Z,22.30
2018-04-10T13:26:33.120Z,22.14
2018-04-10T13:29:01.024Z,22.03
2018-04-10T13:31:28.840Z,22.50
2018-04-10T13:33:56.556Z,21.94
2018-04-10T13:36:24.138Z,22.05
2018-04-10T13:38:51.872Z,23.20
2018-04-10T13:41:19.481Z,23.13
2018-04-10T13:43:47.044Z,23.01
2018-04-10T13:46:14.672Z,23.74
2018-04-10T13:48:42.237Z,23.36
2018-04-10T13:51:10.085Z,22.66
2018-04-10T13:53:37.640Z,22.46
2018-04-10T13:56:05.211Z,22.53
2018-04-10T13:58:32.828Z,22.47
2018-04-10T14:01:00.558Z,22.94
2018-04-10T14:03:28.122Z,21.62
2018-04-10T14:05:55.894Z,23.38
2018-04-10T14:08:23.532Z,22.76
2018-04-10T14:10:51.093Z,23.29
2018-04-10T14:13:18.739Z,22.96
2018-04-10T14:15:46.465Z,23.65
2018-04-10T14:18:14.028Z,23.37
2018-04-10T14:20:41.803Z,23.58
2018-04-10T14:23:09.359Z,22.90
2018-04-10T14:25:36.940Z,22.19
2018-04-10T14:28:04.547Z,21.77
2018-04-10T14:30:32.331Z,22.03
2018-04-10T14:32:59.892Z,22.04
2018-04-10T14:35:27.544Z,21.36
2018-04-10T14:37:55.108Z,21.03
2018-04-10T14:40:22.948Z,21.31
2018-04-10T14:42:50.645Z,20.38
2018-04-10T14:45:18.216Z,19.85
2018-04-10T14:47:45.792Z,18.40
2018-04-10T14:50:13.520Z,18.35
2018-04-10T14:52:41.160Z,17.67
2018-04-10T14:55:08.712Z,17.34
2018-04-10T14:57:36.317Z,16.94
2018-04-10T15:00:04.098Z,17.10
2018-04-10T15:02:31.911Z,18.03
2018-04-10T15:04:59.484Z,18.46
2018-04-10T15:07:27.035Z,18.37
2018-04-10T15:09:54.596Z,18.75
2018-04-10T15:12:22.380Z,19.07
2018-04-10T15:14:49.994Z,18.68
2018-04-10T15:17:17.732Z,18.83
2018-04-10T15:19:45.537Z,18.77
2018-04-10T15:22:13.106Z,19.34
2018-04-10T15:24:40.672Z,19.86
2018-04-10T15:27:08.691Z,20.26
2018-04-10T15:29:36.308Z,20.51
2018-04-10T15:32:03.873Z,20.84
2018-04-10T15:34:31.438Z,21.11
2018-04-10T15:37:00.874Z,21.56
2018-04-10T15:39:28.687Z,22.01
2018-04-10T15:41:56.249Z,22.12
2018-04-10T15:44:24.023Z,22.49
2018-04-10T15:46:51.708Z,22.89
2018-04-10T15:49:19.369Z,23.43
2018-04-10T15:51:47.085Z,23.87
2018-04-10T15:54:14.897Z,24.10
2018-04-10T15:56:42.451Z,24.49
2018-04-10T15:59:10.293Z,24.69
2018-04-10T16:01:37.844Z,24.90
2018-04-10T16:04:05.418Z,25.14
2018-04-10T16:06:34.201Z,25.30
2018-04-10T16:09:02.009Z,25.19
2018-04-10T16:11:29.602Z,25.44
2018-04-10T16:13:57.211Z,25.46
2018-04-10T16:16:24.819Z,25.55
2018-04-10T16:18:52.365Z,25.77
2018-04-10T16:21:21.103Z,25.60
2018-04-10T16:23:48.922Z,25.85
2018-04-10T16:26:16.479Z,25.87
2018-04-10T16:28:44.062Z,26.18
2018-04-10T16:31:11.635Z,26.14
2018-04-10T16:33:39.192Z,26.11
2018-04-10T16:36:07.010Z,26.39
2018-04-10T16:38:34.568Z,26.58
2018-04-10T16:41:02.136Z,26.62
2018-04-10T16:43:29.964Z,26.84
2018-04-10T16:45:57.523Z,26.87
2018-04-10T16:48:25.092Z,26.99
2018-04-10T16:50:52.931Z,27.23
2018-04-10T16:53:20.484Z,27.52
2018-04-10T16:55:48.058Z,27.54
2018-04-10T16:58:15.612Z,27.78
2018-04-10T17:00:43.390Z,28.16
2018-04-10T17:03:10.947Z,28.35
2018-04-10T17:05:38.700Z,28.64
2018-04-10T17:08:06.312Z,29.03
2018-04-10T17:10:33.880Z,29.43
2018-04-10T17:13:01.683Z,29.65
2018-04-10T17:15:29.248Z,30.08
2018-04-10T17:17:56.827Z,30.42
2018-04-10T17:20:24.421Z,30.49
2018-04-10T17:22:52.072Z,31.13
2018-04-10T17:25:19.655Z,31.36
2018-04-10T17:27:47.279Z,31.42
2018-04-10T17:30:14.881Z,31.97
2018-04-10T17:32:42.624Z,32.08
2018-04-10T17:35:10.443Z,32.54
2018-04-10T17:37:38.052Z,33.30
2018-04-10T17:40:05.628Z,33.45
2018-04-10T17:42:33.181Z,34.12
2018-04-10T17:45:00.799Z,34.38
2018-04-10T17:47:28.368Z,34.67
2018-04-10T17:49:55.940Z,34.82
2018-04-10T17:52:23.645Z,34.86
2018-04-10T17:54:51.388Z,34.80
2018-04-10T17:57:18.994Z,35.20
2018-04-10T17:59:46.924Z,35.76
2018-04-10T18:02:14.540Z,35.60
2018-04-10T18:04:42.211Z,35.77
2018-04-10T18:07:09.844Z,35.76
2018-04-10T18:09:37.403Z,36.21
2018-04-10T18:12:05.214Z,36.28
2018-04-10T18:14:32.779Z,36.48
2018-04-10T18:17:00.549Z,36.52
2018-04-10T18:19:28.299Z,36.80
2018-04-10T18:21:56.079Z,37.29
2018-04-10T18:24:23.698Z,37.47
2018-04-10T18:26:51.408Z,37.83
2018-04-10T18:29:19.023Z,37.57
2018-04-10T18:31:46.759Z,37.71
2018-04-10T18:34:14.315Z,37.73
2018-04-10T18:36:41.942Z,37.74
2018-04-10T18:39:09.617Z,37.76
2018-04-10T18:41:37.446Z,38.08
2018-04-10T18:44:05.004Z,38.08
2018-04-10T18:46:32.581Z,38.01
2018-04-10T18:49:00.387Z,38.35
2018-04-10T18:51:28.153Z,38.70
2018-04-10T18:53:55.924Z,39.27
2018-04-10T18:56:23.743Z,39.35
2018-04-10T18:58:51.320Z,39.58
2018-04-10T19:01:19.100Z,40.14
2018-04-10T19:03:46.677Z,40.76
2018-04-10T19:06:14.405Z,40.98
2018-04-10T19:08:42.084Z,40.80
2018-04-10T19:11:09.668Z,40.88
2018-04-10T19:13:37.470Z,40.91
2018-04-10T19:16:05.173Z,41.04
2018-04-10T19:18:32.905Z,41.32
2018-04-10T19:21:00.724Z,41.38
2018-04-10T19:23:28.280Z,41.59
2018-04-10T19:25:55.844Z,41.70
2018-04-10T19:28:23.678Z,41.92
2018-04-10T19:30:51.487Z,42.06
2018-04-10T19:33:19.043Z,42.24
2018-04-10T19:35:46.596Z,42.40
2018-04-10T19:38:14.164Z,42.53
2018-04-10T19:40:41.968Z,42.58
2018-04-10T19:43:09.786Z,42.53
2018-04-10T19:45:37.348Z,42.28
2018-04-10T19:48:04.935Z,42.55
2018-04-10T19:50:32.558Z,42.56
2018-04-10T19:53:00.168Z,43.22
2018-04-10T19:55:27.731Z,43.47
2018-04-10T19:57:55.306Z,43.83
2018-04-10T20:00:22.879Z,44.26
2018-04-10T20:02:50.629Z,43.95
2018-04-10T20:05:18.233Z,44.27
2018-04-10T20:07:45.832Z,44.07
2018-04-10T20:10:13.480Z,44.33
2018-04-10T20:12:41.185Z,44.47
2018-04-10T20:15:08.920Z,44.05
2018-04-10T20:17:36.739Z,44.47
2018-04-10T20:20:04.398Z,44.77
2018-04-10T20:22:32.148Z,42.01
2018-04-10T20:24:59.722Z,43.02
2018-04-10T20:27:27.415Z,43.99
2018-04-10T20:29:55.131Z,43.51
2018-04-10T20:32:22.948Z,43.79
2018-04-10T20:34:50.503Z,44.23
2018-04-10T20:37:18.251Z,44.25
2018-04-10T20:39:45.819Z,44.13
2018-04-10T20:42:13.621Z,44.67
2018-04-10T20:44:41.237Z,44.62
2018-04-10T20:47:09.057Z,44.56
2018-04-10T20:49:36.788Z,44.59
2018-04-10T20:52:04.381Z,45.19
2018-04-10T20:54:32.020Z,45.20
2018-04-10T20:56:59.615Z,45.43
2018-04-10T20:59:27.173Z,45.63
2018-04-10T21:01:54.743Z,45.76
2018-04-10T21:04:22.483Z,45.96
2018-04-10T21:06:50.053Z,45.61
2018-04-10T21:09:17.625Z,45.47
2018-04-10T21:11:45.192Z,45.17
2018-04-10T21:14:12.738Z,46.04
2018-04-10T21:16:40.356Z,45.73
2018-04-10T21:19:08.093Z,44.42
2018-04-10T21:21:35.811Z,45.12
2018-04-10T21:24:03.417Z,45.29
2018-04-10T21:26:30.980Z,44.53
2018-04-10T21:28:58.549Z,44.89
2018-04-10T21:31:26.147Z,44.10
2018-04-10T21:33:53.888Z,43.39
2018-04-10T21:36:21.472Z,43.30
2018-04-10T21:41:22.769Z,43.04
2018-04-10T21:43:50.455Z,42.82
2018-04-10T21:46:18.212Z,42.70
2018-04-10T21:48:45.774Z,42.32
2018-04-10T21:51:13.530Z,42.33
2018-04-10T21:53:41.086Z,42.68
2018-04-10T21:56:08.653Z,42.90
2018-04-10T21:58:36.216Z,42.88
2018-04-10T22:01:03.784Z,43.12
2018-04-10T22:03:31.344Z,43.29
2018-04-10T22:05:58.956Z,43.27
2018-04-10T22:08:26.503Z,43.07
2018-04-10T22:10:54.117Z,42.92
2018-04-10T22:13:21.660Z,43.82
2018-04-10T22:15:49.427Z,43.25
2018-04-10T22:18:16.992Z,43.59
2018-04-10T22:20:44.764Z,43.64
2018-04-10T22:23:12.581Z,44.42
2018-04-10T22:25:40.140Z,45.31
2018-04-10T22:28:07.983Z,45.53
2018-04-10T22:30:35.706Z,45.86
2018-04-10T22:33:03.248Z,45.85
2018-04-10T22:35:30.831Z,44.64
2018-04-10T22:37:58.438Z,44.84
2018-04-10T22:40:26.023Z,45.46
2018-04-10T22:42:53.584Z,45.84
2018-04-10T22:45:21.197Z,46.13
2018-04-10T22:47:48.930Z,46.25
2018-04-10T22:50:16.489Z,46.11
2018-04-10T22:52:44.065Z,46.59
2018-04-10T22:55:11.642Z,46.61
2018-04-10T22:57:39.405Z,46.10
2018-04-10T23:00:07.221Z,45.77
2018-04-10T23:02:34.788Z,46.44
2018-04-10T23:05:02.478Z,46.35
2018-04-10T23:07:30.103Z,46.33
2018-04-10T23:09:57.907Z,45.94
2018-04-10T23:12:25.526Z,46.13
2018-04-10T23:14:53.142Z,46.51
2018-04-10T23:17:20.875Z,46.68
2018-04-10T23:19:48.445Z,46.99
2018-04-10T23:22:16.001Z,46.70
2018-04-10T23:24:43.834Z,46.98
2018-04-10T23:27:11.440Z,47.22
2018-04-10T23:29:39.236Z,47.32
2018-04-10T23:32:06.952Z,47.35
2018-04-10T23:34:34.645Z,47.49
2018-04-10T23:37:02.433Z,47.39
2018-04-10T23:39:29.973Z,46.44
2018-04-10T23:41:57.552Z,46.48
2018-04-10T23:44:25.148Z,46.68
2018-04-10T23:46:52.712Z,46.82
2018-04-10T23:49:20.273Z,47.12
2018-04-10T23:51:47.847Z,47.44
2018-04-10T23:54:15.382Z,47.39
2018-04-10T23:56:42.928Z,47.69
2018-04-10T23:59:10.492Z,47.63
